sensor_id;sensor_type;location;lat;lon;timestamp;P1;durP1;ratioP1;P2;durP2;ratioP2
18316;SDS011;9284;52.298;21.164;2023-03-01T04:11:00;64.70;;;24.43;;
18316;SDS011;9284;52.298;21.164;2023-03-01T04:13:51;67.37;;;25.90;;
18316;SDS011;9284;52.298;21.164;2023-03-01T04:16:21;73.03;;;27.33;;
18316;SDS011;9284;52.298;21.164;2023-03-01T04:18:50;68.70;;;26.40;;
18316;SDS011;9284;52.298;21.164;2023-03-01T04:21:20;67.23;;;26.07;;
18316;SDS011;9284;52.298;21.164;2023-03-01T04:23:48;64.93;;;25.57;;
18316;SDS011;9284;52.298;21.164;2023-03-01T04:26:20;59.57;;;25.57;;
18316;SDS011;9284;52.298;21.164;2023-03-01T04:28:48;62.43;;;26.23;;
18316;SDS011;9284;52.298;21.164;2023-03-01T04:31:17;67.03;;;26.87;;
18316;SDS011;9284;52.298;21.164;2023-03-01T04:33:48;66.40;;;25.97;;
18316;SDS011;9284;52.298;21.164;2023-03-01T04:36:19;67.00;;;25.97;;
18316;SDS011;9284;52.298;21.164;2023-03-01T04:38:49;70.30;;;26.70;;
18316;SDS011;9284;52.298;21.164;2023-03-01T04:41:19;68.73;;;25.93;;
18316;SDS011;9284;52.298;21.164;2023-03-01T04:43:50;67.47;;;25.57;;
18316;SDS011;9284;52.298;21.164;2023-03-01T04:46:19;66.33;;;25.73;;
18316;SDS011;9284;52.298;21.164;2023-03-01T04:48:48;68.07;;;26.87;;
18316;SDS011;9284;52.298;21.164;2023-03-01T04:51:16;66.40;;;26.40;;
18316;SDS011;9284;52.298;21.164;2023-03-01T04:53:45;66.67;;;25.87;;
18316;SDS011;9284;52.298;21.164;2023-03-01T04:56:13;62.60;;;24.60;;
18316;SDS011;9284;52.298;21.164;2023-03-01T04:58:46;67.30;;;24.30;;
18316;SDS011;9284;52.298;21.164;2023-03-01T05:01:15;64.13;;;24.60;;
18316;SDS011;9284;52.298;21.164;2023-03-01T05:03:46;66.13;;;26.70;;
18316;SDS011;9284;52.298;21.164;2023-03-01T05:06:16;60.80;;;24.03;;
18316;SDS011;9284;52.298;21.164;2023-03-01T05:08:46;67.43;;;24.40;;
18316;SDS011;9284;52.298;21.164;2023-03-01T05:11:14;59.27;;;23.73;;
18316;SDS011;9284;52.298;21.164;2023-03-01T05:13:42;61.30;;;24.20;;
18316;SDS011;9284;52.298;21.164;2023-03-01T05:16:12;63.93;;;23.80;;
18316;SDS011;9284;52.298;21.164;2023-03-01T05:18:40;58.00;;;22.77;;
18316;SDS011;9284;52.298;21.164;2023-03-01T05:21:10;57.10;;;25.43;;
18316;SDS011;9284;52.298;21.164;2023-03-01T05:23:39;71.60;;;26.57;;
18316;SDS011;9284;52.298;21.164;2023-03-01T05:26:08;61.23;;;25.33;;
18316;SDS011;9284;52.298;21.164;2023-03-01T05:28:53;61.20;;;24.00;;
18316;SDS011;9284;52.298;21.164;2023-03-01T05:31:26;63.13;;;23.77;;
18316;SDS011;9284;52.298;21.164;2023-03-01T05:33:57;72.10;;;26.67;;
18316;SDS011;9284;52.298;21.164;2023-03-01T05:36:25;62.87;;;23.93;;
18316;SDS011;9284;52.298;21.164;2023-03-01T05:38:54;68.17;;;26.50;;
18316;SDS011;9284;52.298;21.164;2023-03-01T05:41:22;62.97;;;25.03;;
18316;SDS011;9284;52.298;21.164;2023-03-01T05:43:50;62.43;;;25.30;;
18316;SDS011;9284;52.298;21.164;2023-03-01T05:46:18;59.53;;;23.60;;
18316;SDS011;9284;52.298;21.164;2023-03-01T05:48:48;65.90;;;25.73;;
18316;SDS011;9284;52.298;21.164;2023-03-01T05:51:16;66.00;;;24.27;;
18316;SDS011;9284;52.298;21.164;2023-03-01T05:53:45;69.10;;;26.77;;
18316;SDS011;9284;52.298;21.164;2023-03-01T05:56:13;66.77;;;25.77;;
18316;SDS011;9284;52.298;21.164;2023-03-01T05:58:41;66.17;;;26.67;;
18316;SDS011;9284;52.298;21.164;2023-03-01T06:01:10;67.83;;;24.73;;
18316;SDS011;9284;52.298;21.164;2023-03-01T06:03:40;55.73;;;23.87;;
18316;SDS011;9284;52.298;21.164;2023-03-01T06:06:09;68.53;;;26.40;;
18316;SDS011;9284;52.298;21.164;2023-03-01T06:08:38;62.17;;;24.97;;
18316;SDS011;9284;52.298;21.164;2023-03-01T06:11:06;64.37;;;24.93;;
18316;SDS011;9284;52.298;21.164;2023-03-01T06:13:35;61.20;;;25.67;;
18316;SDS011;9284;52.298;21.164;2023-03-01T06:16:04;66.60;;;25.23;;
18316;SDS011;9284;52.298;21.164;2023-03-01T06:18:33;70.07;;;26.87;;
18316;SDS011;9284;52.298;21.164;2023-03-01T06:21:01;68.23;;;27.20;;
18316;SDS011;9284;52.298;21.164;2023-03-01T06:23:32;55.17;;;24.70;;
18316;SDS011;9284;52.298;21.164;2023-03-01T06:26:04;70.17;;;26.53;;
18316;SDS011;9284;52.298;21.164;2023-03-01T06:28:33;68.70;;;27.07;;
18316;SDS011;9284;52.298;21.164;2023-03-01T06:31:02;65.70;;;25.07;;
18316;SDS011;9284;52.298;21.164;2023-03-01T06:33:31;68.00;;;27.13;;
18316;SDS011;9284;52.298;21.164;2023-03-01T06:35:59;65.00;;;26.70;;
18316;SDS011;9284;52.298;21.164;2023-03-01T06:38:27;67.37;;;25.97;;
18316;SDS011;9284;52.298;21.164;2023-03-01T06:40:57;64.77;;;28.07;;
18316;SDS011;9284;52.298;21.164;2023-03-01T06:43:25;64.20;;;24.57;;
18316;SDS011;9284;52.298;21.164;2023-03-01T06:45:53;72.27;;;27.17;;
18316;SDS011;9284;52.298;21.164;2023-03-01T06:48:22;73.53;;;24.10;;
18316;SDS011;9284;52.298;21.164;2023-03-01T06:50:50;63.47;;;27.10;;
18316;SDS011;9284;52.298;21.164;2023-03-01T06:53:18;65.63;;;27.67;;
18316;SDS011;9284;52.298;21.164;2023-03-01T06:55:46;66.23;;;26.83;;
18316;SDS011;9284;52.298;21.164;2023-03-01T06:58:16;68.03;;;26.23;;
18316;SDS011;9284;52.298;21.164;2023-03-01T07:00:44;66.73;;;25.80;;
18316;SDS011;9284;52.298;21.164;2023-03-01T07:03:13;64.83;;;28.00;;
18316;SDS011;9284;52.298;21.164;2023-03-01T07:05:41;66.90;;;26.50;;
18316;SDS011;9284;52.298;21.164;2023-03-01T07:08:10;71.47;;;26.50;;
18316;SDS011;9284;52.298;21.164;2023-03-01T07:10:39;69.60;;;27.77;;
18316;SDS011;9284;52.298;21.164;2023-03-01T07:13:07;66.67;;;26.53;;
18316;SDS011;9284;52.298;21.164;2023-03-01T07:15:39;61.93;;;26.00;;
18316;SDS011;9284;52.298;21.164;2023-03-01T07:18:08;63.90;;;26.23;;
18316;SDS011;9284;52.298;21.164;2023-03-01T07:20:36;64.47;;;24.90;;
18316;SDS011;9284;52.298;21.164;2023-03-01T07:23:05;54.33;;;23.98;;
18316;SDS011;9284;52.298;21.164;2023-03-01T07:25:33;56.28;;;21.08;;
18316;SDS011;9284;52.298;21.164;2023-03-01T07:28:01;47.78;;;21.33;;
18316;SDS011;9284;52.298;21.164;2023-03-01T07:30:30;59.65;;;22.17;;
18316;SDS011;9284;52.298;21.164;2023-03-01T07:33:00;42.42;;;19.48;;
18316;SDS011;9284;52.298;21.164;2023-03-01T07:35:28;41.55;;;17.92;;
18316;SDS011;9284;52.298;21.164;2023-03-01T07:37:56;44.00;;;17.75;;
18316;SDS011;9284;52.298;21.164;2023-03-01T07:40:25;37.40;;;17.90;;
18316;SDS011;9284;52.298;21.164;2023-03-01T07:42:55;40.80;;;18.33;;
18316;SDS011;9284;52.298;21.164;2023-03-01T07:45:24;38.17;;;17.20;;
18316;SDS011;9284;52.298;21.164;2023-03-01T07:47:52;36.78;;;18.08;;
18316;SDS011;9284;52.298;21.164;2023-03-01T07:50:23;30.38;;;15.25;;
18316;SDS011;9284;52.298;21.164;2023-03-01T07:52:51;36.70;;;16.52;;
18316;SDS011;9284;52.298;21.164;2023-03-01T07:55:19;40.78;;;17.25;;
18316;SDS011;9284;52.298;21.164;2023-03-01T07:57:47;34.55;;;15.20;;
18316;SDS011;9284;52.298;21.164;2023-03-01T08:00:16;34.35;;;15.05;;
18316;SDS011;9284;52.298;21.164;2023-03-01T08:02:45;35.72;;;16.48;;
18316;SDS011;9284;52.298;21.164;2023-03-01T08:05:13;38.85;;;17.23;;
18316;SDS011;9284;52.298;21.164;2023-03-01T08:07:43;35.92;;;16.13;;
18316;SDS011;9284;52.298;21.164;2023-03-01T08:10:11;39.90;;;17.10;;
18316;SDS011;9284;52.298;21.164;2023-03-01T08:12:39;36.30;;;15.60;;
18316;SDS011;9284;52.298;21.164;2023-03-01T08:15:08;35.15;;;15.73;;
18316;SDS011;9284;52.298;21.164;2023-03-01T08:17:37;38.42;;;16.00;;
18316;SDS011;9284;52.298;21.164;2023-03-01T08:20:06;34.97;;;15.07;;
18316;SDS011;9284;52.298;21.164;2023-03-01T08:22:39;34.55;;;15.77;;
18316;SDS011;9284;52.298;21.164;2023-03-01T08:25:08;36.08;;;15.75;;
18316;SDS011;9284;52.298;21.164;2023-03-01T08:27:37;41.58;;;16.08;;
18316;SDS011;9284;52.298;21.164;2023-03-01T08:30:06;36.47;;;15.77;;
18316;SDS011;9284;52.298;21.164;2023-03-01T08:32:35;38.30;;;15.73;;
18316;SDS011;9284;52.298;21.164;2023-03-01T08:35:05;37.00;;;15.73;;
18316;SDS011;9284;52.298;21.164;2023-03-01T08:37:34;33.67;;;15.23;;
18316;SDS011;9284;52.298;21.164;2023-03-01T08:40:02;35.03;;;15.83;;
18316;SDS011;9284;52.298;21.164;2023-03-01T08:42:36;31.83;;;15.90;;
18316;SDS011;9284;52.298;21.164;2023-03-01T08:45:05;37.97;;;16.27;;
18316;SDS011;9284;52.298;21.164;2023-03-01T08:47:34;34.80;;;15.40;;
18316;SDS011;9284;52.298;21.164;2023-03-01T08:50:02;31.73;;;14.80;;
18316;SDS011;9284;52.298;21.164;2023-03-01T08:52:31;35.37;;;15.07;;
18316;SDS011;9284;52.298;21.164;2023-03-01T08:55:00;35.33;;;15.70;;
18316;SDS011;9284;52.298;21.164;2023-03-01T08:57:29;33.10;;;15.00;;
18316;SDS011;9284;52.298;21.164;2023-03-01T08:59:59;36.50;;;15.00;;
18316;SDS011;9284;52.298;21.164;2023-03-01T09:02:27;36.42;;;13.85;;
18316;SDS011;9284;52.298;21.164;2023-03-01T09:04:55;30.23;;;13.97;;
18316;SDS011;9284;52.298;21.164;2023-03-01T09:07:23;34.45;;;14.85;;
18316;SDS011;9284;52.298;21.164;2023-03-01T09:09:54;32.90;;;15.70;;
18316;SDS011;9284;52.298;21.164;2023-03-01T09:12:22;33.23;;;15.33;;
18316;SDS011;9284;52.298;21.164;2023-03-01T09:14:52;31.93;;;16.47;;
18316;SDS011;9284;52.298;21.164;2023-03-01T09:17:22;38.78;;;15.98;;
18316;SDS011;9284;52.298;21.164;2023-03-01T09:19:50;28.58;;;14.05;;
18316;SDS011;9284;52.298;21.164;2023-03-01T09:22:18;31.97;;;15.33;;
18316;SDS011;9284;52.298;21.164;2023-03-01T09:24:46;31.80;;;14.50;;
18316;SDS011;9284;52.298;21.164;2023-03-01T09:27:15;32.73;;;14.87;;
18316;SDS011;9284;52.298;21.164;2023-03-01T09:29:45;30.83;;;13.90;;
18316;SDS011;9284;52.298;21.164;2023-03-01T09:32:13;28.20;;;13.87;;
18316;SDS011;9284;52.298;21.164;2023-03-01T09:34:43;28.33;;;12.70;;
18316;SDS011;9284;52.298;21.164;2023-03-01T09:37:31;34.40;;;13.70;;
18316;SDS011;9284;52.298;21.164;2023-03-01T09:40:01;31.10;;;12.10;;
18316;SDS011;9284;52.298;21.164;2023-03-01T09:42:31;31.03;;;13.67;;
18316;SDS011;9284;52.298;21.164;2023-03-01T09:45:03;30.97;;;13.70;;
18316;SDS011;9284;52.298;21.164;2023-03-01T09:47:33;32.47;;;13.97;;
18316;SDS011;9284;52.298;21.164;2023-03-01T09:50:06;30.10;;;14.03;;
18316;SDS011;9284;52.298;21.164;2023-03-01T09:52:39;36.40;;;13.23;;
18316;SDS011;9284;52.298;21.164;2023-03-01T09:55:11;33.47;;;13.83;;
18316;SDS011;9284;52.298;21.164;2023-03-01T09:57:43;29.27;;;13.17;;
18316;SDS011;9284;52.298;21.164;2023-03-01T10:00:21;32.67;;;13.50;;
18316;SDS011;9284;52.298;21.164;2023-03-01T10:03:02;31.63;;;13.37;;
18316;SDS011;9284;52.298;21.164;2023-03-01T10:05:52;33.70;;;12.97;;
18316;SDS011;9284;52.298;21.164;2023-03-01T10:08:26;31.83;;;12.40;;
18316;SDS011;9284;52.298;21.164;2023-03-01T10:10:59;25.37;;;12.77;;
18316;SDS011;9284;52.298;21.164;2023-03-01T10:13:29;25.13;;;11.73;;
18316;SDS011;9284;52.298;21.164;2023-03-01T10:16:16;31.50;;;12.07;;
18316;SDS011;9284;52.298;21.164;2023-03-01T10:18:50;22.23;;;11.27;;
18316;SDS011;9284;52.298;21.164;2023-03-01T10:21:25;26.47;;;12.50;;
18316;SDS011;9284;52.298;21.164;2023-03-01T10:23:55;29.67;;;12.80;;
18316;SDS011;9284;52.298;21.164;2023-03-01T10:26:38;27.23;;;11.67;;
18316;SDS011;9284;52.298;21.164;2023-03-01T10:29:12;25.37;;;11.33;;
18316;SDS011;9284;52.298;21.164;2023-03-01T10:31:42;26.97;;;11.57;;
18316;SDS011;9284;52.298;21.164;2023-03-01T10:34:20;24.40;;;10.23;;
18316;SDS011;9284;52.298;21.164;2023-03-01T10:37:04;28.93;;;12.07;;
18316;SDS011;9284;52.298;21.164;2023-03-01T10:39:37;27.13;;;12.57;;
18316;SDS011;9284;52.298;21.164;2023-03-01T10:42:25;21.43;;;9.30;;
18316;SDS011;9284;52.298;21.164;2023-03-01T10:44:56;24.77;;;10.33;;
18316;SDS011;9284;52.298;21.164;2023-03-01T10:47:26;27.97;;;11.43;;
18316;SDS011;9284;52.298;21.164;2023-03-01T10:49:56;25.90;;;11.40;;
18316;SDS011;9284;52.298;21.164;2023-03-01T10:52:29;24.30;;;10.67;;
18316;SDS011;9284;52.298;21.164;2023-03-01T10:55:01;29.83;;;12.50;;
18316;SDS011;9284;52.298;21.164;2023-03-01T10:57:33;25.47;;;10.90;;
18316;SDS011;9284;52.298;21.164;2023-03-01T11:00:14;23.50;;;10.53;;
18316;SDS011;9284;52.298;21.164;2023-03-01T11:02:50;23.08;;;9.80;;
18316;SDS011;9284;52.298;21.164;2023-03-01T11:05:30;23.08;;;11.20;;
18316;SDS011;9284;52.298;21.164;2023-03-01T11:08:01;19.67;;;9.67;;
18316;SDS011;9284;52.298;21.164;2023-03-01T11:10:31;20.45;;;8.93;;
18316;SDS011;9284;52.298;21.164;2023-03-01T11:13:08;15.80;;;8.95;;
18316;SDS011;9284;52.298;21.164;2023-03-01T11:15:42;21.45;;;9.45;;
18316;SDS011;9284;52.298;21.164;2023-03-01T11:18:29;16.88;;;8.57;;
18316;SDS011;9284;52.298;21.164;2023-03-01T11:21:12;17.95;;;9.02;;
18316;SDS011;9284;52.298;21.164;2023-03-01T11:23:44;19.23;;;9.35;;
18316;SDS011;9284;52.298;21.164;2023-03-01T11:26:14;17.92;;;8.88;;
18316;SDS011;9284;52.298;21.164;2023-03-01T11:28:43;18.20;;;8.68;;
18316;SDS011;9284;52.298;21.164;2023-03-01T11:31:17;18.85;;;9.18;;
18316;SDS011;9284;52.298;21.164;2023-03-01T11:33:53;26.88;;;11.77;;
18316;SDS011;9284;52.298;21.164;2023-03-01T11:36:34;28.05;;;11.73;;
18316;SDS011;9284;52.298;21.164;2023-03-01T11:39:15;20.48;;;10.25;;
18316;SDS011;9284;52.298;21.164;2023-03-01T11:41:52;22.60;;;11.05;;
18316;SDS011;9284;52.298;21.164;2023-03-01T11:44:44;21.70;;;10.05;;
18316;SDS011;9284;52.298;21.164;2023-03-01T11:47:22;21.38;;;10.73;;
18316;SDS011;9284;52.298;21.164;2023-03-01T11:50:11;18.73;;;9.10;;
18316;SDS011;9284;52.298;21.164;2023-03-01T11:52:47;18.08;;;9.13;;
18316;SDS011;9284;52.298;21.164;2023-03-01T11:55:26;21.45;;;10.02;;
18316;SDS011;9284;52.298;21.164;2023-03-01T11:58:27;22.48;;;11.10;;
18316;SDS011;9284;52.298;21.164;2023-03-01T12:01:13;25.05;;;11.75;;
18316;SDS011;9284;52.298;21.164;2023-03-01T12:03:58;23.08;;;10.38;;
18316;SDS011;9284;52.298;21.164;2023-03-01T12:06:49;23.77;;;10.93;;
18316;SDS011;9284;52.298;21.164;2023-03-01T12:09:27;21.15;;;10.05;;
18316;SDS011;9284;52.298;21.164;2023-03-01T12:12:24;20.02;;;9.98;;
18316;SDS011;9284;52.298;21.164;2023-03-01T12:15:10;20.63;;;10.18;;
18316;SDS011;9284;52.298;21.164;2023-03-01T12:17:58;22.05;;;9.68;;
18316;SDS011;9284;52.298;21.164;2023-03-01T12:20:41;20.85;;;10.13;;
18316;SDS011;9284;52.298;21.164;2023-03-01T12:23:28;22.67;;;9.40;;
18316;SDS011;9284;52.298;21.164;2023-03-01T12:26:19;19.65;;;10.02;;
18316;SDS011;9284;52.298;21.164;2023-03-01T12:29:05;20.27;;;9.85;;
18316;SDS011;9284;52.298;21.164;2023-03-01T12:37:29;18.70;;;9.55;;
18316;SDS011;9284;52.298;21.164;2023-03-01T12:40:19;18.00;;;8.93;;
18316;SDS011;9284;52.298;21.164;2023-03-01T12:43:05;18.85;;;9.32;;
18316;SDS011;9284;52.298;21.164;2023-03-01T12:45:47;20.38;;;9.55;;
18316;SDS011;9284;52.298;21.164;2023-03-01T12:48:29;17.35;;;9.43;;
18316;SDS011;9284;52.298;21.164;2023-03-01T12:51:06;22.52;;;9.98;;
18316;SDS011;9284;52.298;21.164;2023-03-01T12:53:39;26.38;;;11.00;;
18316;SDS011;9284;52.298;21.164;2023-03-01T12:56:12;20.88;;;10.10;;
18316;SDS011;9284;52.298;21.164;2023-03-01T12:58:46;14.95;;;9.13;;
18316;SDS011;9284;52.298;21.164;2023-03-01T13:01:29;27.27;;;9.65;;
18316;SDS011;9284;52.298;21.164;2023-03-01T13:04:13;18.98;;;9.70;;
18316;SDS011;9284;52.298;21.164;2023-03-01T13:06:49;19.48;;;10.43;;
18316;SDS011;9284;52.298;21.164;2023-03-01T13:09:24;21.58;;;10.73;;
18316;SDS011;9284;52.298;21.164;2023-03-01T13:11:59;21.45;;;11.05;;
18316;SDS011;9284;52.298;21.164;2023-03-01T13:14:37;24.17;;;11.95;;
18316;SDS011;9284;52.298;21.164;2023-03-01T13:20:14;22.75;;;11.35;;
18316;SDS011;9284;52.298;21.164;2023-03-01T13:22:44;24.50;;;11.95;;
18316;SDS011;9284;52.298;21.164;2023-03-01T13:25:20;30.40;;;13.27;;
18316;SDS011;9284;52.298;21.164;2023-03-01T13:28:35;30.15;;;12.23;;
18316;SDS011;9284;52.298;21.164;2023-03-01T13:31:10;23.35;;;11.50;;
18316;SDS011;9284;52.298;21.164;2023-03-01T13:34:41;26.13;;;12.23;;
18316;SDS011;9284;52.298;21.164;2023-03-01T13:37:19;26.58;;;11.88;;
18316;SDS011;9284;52.298;21.164;2023-03-01T13:40:00;25.77;;;11.65;;
18316;SDS011;9284;52.298;21.164;2023-03-01T13:42:34;22.45;;;11.43;;
18316;SDS011;9284;52.298;21.164;2023-03-01T13:45:12;25.15;;;12.00;;
18316;SDS011;9284;52.298;21.164;2023-03-01T13:47:49;24.85;;;12.00;;
18316;SDS011;9284;52.298;21.164;2023-03-01T13:50:25;23.02;;;11.52;;
18316;SDS011;9284;52.298;21.164;2023-03-01T13:52:57;23.88;;;11.20;;
18316;SDS011;9284;52.298;21.164;2023-03-01T13:55:30;26.10;;;11.98;;
18316;SDS011;9284;52.298;21.164;2023-03-01T13:58:12;33.72;;;12.02;;
18316;SDS011;9284;52.298;21.164;2023-03-01T14:00:46;23.75;;;11.35;;
18316;SDS011;9284;52.298;21.164;2023-03-01T14:03:15;29.48;;;13.27;;
18316;SDS011;9284;52.298;21.164;2023-03-01T14:05:56;30.73;;;12.52;;
18316;SDS011;9284;52.298;21.164;2023-03-01T14:08:40;26.00;;;12.55;;
18316;SDS011;9284;52.298;21.164;2023-03-01T14:14:37;22.10;;;11.82;;
18316;SDS011;9284;52.298;21.164;2023-03-01T14:20:23;25.75;;;12.43;;
18316;SDS011;9284;52.298;21.164;2023-03-01T14:22:55;24.52;;;11.95;;
18316;SDS011;9284;52.298;21.164;2023-03-01T14:25:28;25.30;;;12.65;;
18316;SDS011;9284;52.298;21.164;2023-03-01T14:28:00;25.80;;;12.32;;
18316;SDS011;9284;52.298;21.164;2023-03-01T14:30:33;22.70;;;11.23;;
18316;SDS011;9284;52.298;21.164;2023-03-01T14:33:05;30.50;;;11.80;;
18316;SDS011;9284;52.298;21.164;2023-03-01T14:35:52;24.33;;;12.95;;
18316;SDS011;9284;52.298;21.164;2023-03-01T14:38:29;32.40;;;15.30;;
18316;SDS011;9284;52.298;21.164;2023-03-01T14:41:03;33.03;;;15.90;;
18316;SDS011;9284;52.298;21.164;2023-03-01T14:43:35;33.75;;;14.85;;
18316;SDS011;9284;52.298;21.164;2023-03-01T14:46:05;30.67;;;15.05;;
18316;SDS011;9284;52.298;21.164;2023-03-01T14:48:33;30.35;;;13.88;;
18316;SDS011;9284;52.298;21.164;2023-03-01T14:51:02;24.67;;;12.45;;
18316;SDS011;9284;52.298;21.164;2023-03-01T14:53:33;26.05;;;12.30;;
18316;SDS011;9284;52.298;21.164;2023-03-01T14:56:17;31.23;;;13.73;;
18316;SDS011;9284;52.298;21.164;2023-03-01T14:58:50;31.35;;;14.63;;
18316;SDS011;9284;52.298;21.164;2023-03-01T15:01:19;32.75;;;15.23;;
18316;SDS011;9284;52.298;21.164;2023-03-01T15:03:48;38.10;;;17.65;;
18316;SDS011;9284;52.298;21.164;2023-03-01T15:06:18;27.20;;;13.55;;
18316;SDS011;9284;52.298;21.164;2023-03-01T15:08:49;27.90;;;13.15;;
18316;SDS011;9284;52.298;21.164;2023-03-01T15:11:22;27.30;;;12.98;;
18316;SDS011;9284;52.298;21.164;2023-03-01T15:13:54;30.27;;;13.40;;
18316;SDS011;9284;52.298;21.164;2023-03-01T15:16:23;29.77;;;14.10;;
18316;SDS011;9284;52.298;21.164;2023-03-01T15:18:54;44.40;;;17.50;;
18316;SDS011;9284;52.298;21.164;2023-03-01T15:21:25;51.20;;;22.17;;
18316;SDS011;9284;52.298;21.164;2023-03-01T15:23:58;47.90;;;18.83;;
18316;SDS011;9284;52.298;21.164;2023-03-01T15:26:35;37.95;;;16.45;;
18316;SDS011;9284;52.298;21.164;2023-03-01T15:29:11;33.47;;;16.35;;
18316;SDS011;9284;52.298;21.164;2023-03-01T15:31:53;41.92;;;19.25;;
18316;SDS011;9284;52.298;21.164;2023-03-01T15:34:24;42.92;;;17.27;;
18316;SDS011;9284;52.298;21.164;2023-03-01T15:36:53;34.65;;;17.05;;
18316;SDS011;9284;52.298;21.164;2023-03-01T15:39:31;35.88;;;16.73;;
18316;SDS011;9284;52.298;21.164;2023-03-01T15:42:06;36.10;;;16.88;;
18316;SDS011;9284;52.298;21.164;2023-03-01T15:44:37;35.30;;;16.80;;
18316;SDS011;9284;52.298;21.164;2023-03-01T15:47:23;35.60;;;17.00;;
18316;SDS011;9284;52.298;21.164;2023-03-01T15:49:54;37.05;;;18.00;;
18316;SDS011;9284;52.298;21.164;2023-03-01T15:52:25;42.37;;;19.97;;
18316;SDS011;9284;52.298;21.164;2023-03-01T15:54:57;41.37;;;20.30;;
18316;SDS011;9284;52.298;21.164;2023-03-01T15:57:28;43.40;;;21.30;;
18316;SDS011;9284;52.298;21.164;2023-03-01T15:59:56;43.93;;;21.60;;
18316;SDS011;9284;52.298;21.164;2023-03-01T16:02:25;42.50;;;20.40;;
18316;SDS011;9284;52.298;21.164;2023-03-01T16:04:54;41.40;;;19.53;;
18316;SDS011;9284;52.298;21.164;2023-03-01T16:07:23;36.73;;;19.33;;
18316;SDS011;9284;52.298;21.164;2023-03-01T16:09:54;37.70;;;18.93;;
18316;SDS011;9284;52.298;21.164;2023-03-01T16:12:22;41.80;;;19.27;;
18316;SDS011;9284;52.298;21.164;2023-03-01T16:14:53;42.53;;;18.93;;
18316;SDS011;9284;52.298;21.164;2023-03-01T16:17:23;46.07;;;19.33;;
18316;SDS011;9284;52.298;21.164;2023-03-01T16:19:52;46.53;;;21.07;;
18316;SDS011;9284;52.298;21.164;2023-03-01T16:22:20;44.27;;;18.70;;
18316;SDS011;9284;52.298;21.164;2023-03-01T16:24:51;41.80;;;17.97;;
18316;SDS011;9284;52.298;21.164;2023-03-01T16:27:20;46.07;;;19.17;;
18316;SDS011;9284;52.298;21.164;2023-03-01T16:29:48;42.57;;;19.00;;
18316;SDS011;9284;52.298;21.164;2023-03-01T16:32:18;37.57;;;18.37;;
18316;SDS011;9284;52.298;21.164;2023-03-01T16:34:47;45.60;;;19.03;;
18316;SDS011;9284;52.298;21.164;2023-03-01T16:37:16;42.87;;;18.50;;
18316;SDS011;9284;52.298;21.164;2023-03-01T16:39:45;41.00;;;19.20;;
18316;SDS011;9284;52.298;21.164;2023-03-01T16:42:17;39.83;;;18.37;;
18316;SDS011;9284;52.298;21.164;2023-03-01T16:44:45;45.63;;;20.90;;
18316;SDS011;9284;52.298;21.164;2023-03-01T16:47:14;60.47;;;24.37;;
18316;SDS011;9284;52.298;21.164;2023-03-01T16:49:44;73.30;;;28.70;;
18316;SDS011;9284;52.298;21.164;2023-03-01T16:52:12;74.70;;;30.97;;
18316;SDS011;9284;52.298;21.164;2023-03-01T16:54:41;56.57;;;23.73;;
18316;SDS011;9284;52.298;21.164;2023-03-01T16:57:09;63.50;;;26.40;;
18316;SDS011;9284;52.298;21.164;2023-03-01T16:59:37;86.13;;;33.73;;
18316;SDS011;9284;52.298;21.164;2023-03-01T17:02:08;98.97;;;37.03;;
18316;SDS011;9284;52.298;21.164;2023-03-01T17:04:39;112.70;;;41.37;;
18316;SDS011;9284;52.298;21.164;2023-03-01T17:07:08;107.87;;;40.10;;
18316;SDS011;9284;52.298;21.164;2023-03-01T17:09:37;109.13;;;41.17;;
18316;SDS011;9284;52.298;21.164;2023-03-01T17:12:06;106.03;;;41.37;;
18316;SDS011;9284;52.298;21.164;2023-03-01T17:14:34;95.77;;;37.23;;
18316;SDS011;9284;52.298;21.164;2023-03-01T17:17:04;104.13;;;36.50;;
18316;SDS011;9284;52.298;21.164;2023-03-01T17:19:35;94.57;;;38.10;;
18316;SDS011;9284;52.298;21.164;2023-03-01T17:22:12;95.03;;;37.77;;
18316;SDS011;9284;52.298;21.164;2023-03-01T17:24:41;89.10;;;35.93;;
18316;SDS011;9284;52.298;21.164;2023-03-01T17:27:11;85.27;;;32.27;;
18316;SDS011;9284;52.298;21.164;2023-03-01T17:29:40;82.90;;;33.27;;
18316;SDS011;9284;52.298;21.164;2023-03-01T17:32:09;75.20;;;30.23;;
18316;SDS011;9284;52.298;21.164;2023-03-01T17:34:37;70.03;;;27.97;;
18316;SDS011;9284;52.298;21.164;2023-03-01T17:37:06;59.37;;;24.43;;
18316;SDS011;9284;52.298;21.164;2023-03-01T17:39:35;55.03;;;21.87;;
18316;SDS011;9284;52.298;21.164;2023-03-01T17:42:04;49.77;;;20.77;;
18316;SDS011;9284;52.298;21.164;2023-03-01T17:44:33;51.60;;;22.03;;
18316;SDS011;9284;52.298;21.164;2023-03-01T17:47:01;55.47;;;23.40;;
18316;SDS011;9284;52.298;21.164;2023-03-01T17:49:30;62.53;;;28.67;;
18316;SDS011;9284;52.298;21.164;2023-03-01T17:51:59;59.37;;;25.27;;
18316;SDS011;9284;52.298;21.164;2023-03-01T17:54:27;60.07;;;25.87;;
18316;SDS011;9284;52.298;21.164;2023-03-01T17:56:57;53.57;;;24.13;;
18316;SDS011;9284;52.298;21.164;2023-03-01T17:59:26;62.90;;;25.17;;
18316;SDS011;9284;52.298;21.164;2023-03-01T18:01:56;67.17;;;26.67;;
18316;SDS011;9284;52.298;21.164;2023-03-01T18:04:27;59.63;;;26.13;;
18316;SDS011;9284;52.298;21.164;2023-03-01T18:06:55;64.67;;;25.33;;
18316;SDS011;9284;52.298;21.164;2023-03-01T18:09:25;71.33;;;27.20;;
18316;SDS011;9284;52.298;21.164;2023-03-01T18:11:54;78.37;;;32.67;;
18316;SDS011;9284;52.298;21.164;2023-03-01T18:14:24;74.20;;;29.30;;
18316;SDS011;9284;52.298;21.164;2023-03-01T18:16:55;63.57;;;28.10;;
18316;SDS011;9284;52.298;21.164;2023-03-01T18:19:23;75.47;;;32.40;;
18316;SDS011;9284;52.298;21.164;2023-03-01T18:21:51;72.17;;;31.43;;
18316;SDS011;9284;52.298;21.164;2023-03-01T18:24:20;79.17;;;32.40;;
18316;SDS011;9284;52.298;21.164;2023-03-01T18:26:48;78.40;;;32.13;;
18316;SDS011;9284;52.298;21.164;2023-03-01T18:29:16;75.10;;;31.37;;
18316;SDS011;9284;52.298;21.164;2023-03-01T18:31:46;78.03;;;32.70;;
18316;SDS011;9284;52.298;21.164;2023-03-01T18:34:15;79.10;;;33.57;;
18316;SDS011;9284;52.298;21.164;2023-03-01T18:36:43;75.57;;;33.53;;
18316;SDS011;9284;52.298;21.164;2023-03-01T18:39:32;91.83;;;33.37;;
18316;SDS011;9284;52.298;21.164;2023-03-01T18:42:00;80.73;;;32.57;;
18316;SDS011;9284;52.298;21.164;2023-03-01T18:44:29;83.53;;;31.90;;
18316;SDS011;9284;52.298;21.164;2023-03-01T18:46:59;72.13;;;29.73;;
18316;SDS011;9284;52.298;21.164;2023-03-01T18:49:27;74.30;;;28.77;;
18316;SDS011;9284;52.298;21.164;2023-03-01T18:51:56;83.77;;;35.73;;
18316;SDS011;9284;52.298;21.164;2023-03-01T18:54:24;75.23;;;30.27;;
18316;SDS011;9284;52.298;21.164;2023-03-01T18:56:52;73.63;;;29.43;;
18316;SDS011;9284;52.298;21.164;2023-03-01T18:59:21;76.53;;;32.13;;
18316;SDS011;9284;52.298;21.164;2023-03-01T19:01:49;69.27;;;29.93;;
18316;SDS011;9284;52.298;21.164;2023-03-01T19:04:19;69.90;;;27.87;;
18316;SDS011;9284;52.298;21.164;2023-03-01T19:06:47;81.13;;;31.00;;
18316;SDS011;9284;52.298;21.164;2023-03-01T19:09:15;71.77;;;31.23;;
18316;SDS011;9284;52.298;21.164;2023-03-01T19:11:44;78.93;;;32.03;;
18316;SDS011;9284;52.298;21.164;2023-03-01T19:14:12;77.33;;;32.07;;
18316;SDS011;9284;52.298;21.164;2023-03-01T19:16:48;75.27;;;32.87;;
18316;SDS011;9284;52.298;21.164;2023-03-01T19:19:16;79.23;;;31.43;;